• Join FlightAware (Why Join?)
  • Login
  • US Flag GB Flag 
15:17 EDT


 

Airport Tracker/Info


-or-


 

Live Flight TrackerFlight Track Log ✈ UCA4838 ✈ 02-May-2013 ✈ KALB - KEWR

Flight Track Log - Related Links

Times and Time Zones

All times are in EDT time to prevent confusion due to time zone crossing. See the UCA4838 flight status page for this flight to view local times or setup timezone preferences in your user account.

Time Position Orientation Groundspeed Altitude Reporting Facility
EDT Latitude Longitude Course Direction KTS MPH feet Rate Location/Type
10:56 42.7236 -73.8081 174° South 146 168 1,100  Level Boston Center
10:56 42.6964 -73.8044 174° South 151 174 1,900 1,260 Climbing Boston Center
10:57 42.6606 -73.8406 217° Southwest 184 212 3,200 1,260 Climbing Boston Center
10:58 42.6244 -73.8933 227° Southwest 188 216 4,500 1,200 Climbing Boston Center
10:59 42.5781 -73.9344 213° Southwest 207 238 5,700 1,320 Climbing Boston Center
11:00 42.5256 -73.9697 206° Southwest 210 242 7,200 1,440 Climbing Boston Center
11:01 42.4728 -74.0108 210° Southwest 211 243 8,700 1,380 Climbing Boston Center
11:02 42.4181 -74.0489 207° Southwest 215 247 10,000 780 Climbing Boston Center
11:03 42.3825 -74.0731 207° Southwest 240 276 10,000  Level Boston Center
11:04 42.3169 -74.1247 210° Southwest 269 310 10,000  Level Boston Center
11:05 42.2539 -74.1681 207° Southwest 283 326 10,000  Level Boston Center
11:06 42.1781 -74.2247 209° Southwest 291 335 10,000  Level Boston Center
11:07 42.1150 -74.2592 202° Southwest 286 329 10,000  Level Boston Center
11:08 42.0331 -74.2961 199° South 281 323 10,000  Level Boston Center
11:09 41.9678 -74.3278 200° South 281 323 10,000  Level Boston Center
11:10 41.8881 -74.3672 200° South 281 323 10,000  Level Boston Center
11:11 41.8208 -74.3956 197° South 281 323 10,000  Level Boston Center
11:12 41.7431 -74.4350 201° Southwest 281 323 10,000 -600 Level Boston Center
11:13 41.6547 -74.4794 201° Southwest 281 323 8,800 -1,140 Descending Boston Center
11:14 41.5811 -74.5106 198° South 281 323 7,800 -1,140 Descending Boston Center
11:15 41.5097 -74.5469 201° Southwest 281 323 6,600 -720 Descending Boston Center
11:17 41.4000 -74.6000 200° South 262 302 6,000 -240 Descending New York TRACON
11:18 41.3333 -74.6167 191° South 260 299 6,000  Level New York TRACON
11:19 41.2667 -74.6500 201° Southwest 257 296 6,000  Level New York TRACON
11:20 41.2000 -74.6500 180° South 252 290 6,000  Level New York TRACON
11:21 41.1333 -74.6000 151° Southeast 236 272 6,000  Level New York TRACON
11:22 41.1000 -74.5500 131° Southeast 235 270 6,000  Level New York TRACON
11:23 41.0333 -74.5000 150° Southeast 237 273 6,000  Level New York TRACON
11:24 40.9833 -74.4833 166° South 254 292 6,000  Level New York TRACON
11:25 40.9167 -74.5167 201° Southwest 242 278 6,000  Level New York TRACON
11:26 40.8500 -74.5500 201° Southwest 241 277 6,000  Level New York TRACON
11:27 40.8000 -74.5833 207° Southwest 238 274 6,000  Level New York TRACON
11:28 40.7333 -74.6000 191° South 228 262 6,000  Level New York TRACON
11:29 40.6667 -74.6000 180° South 232 267 6,000 -480 Level New York TRACON
11:30 40.6000 -74.6000 180° South 234 269 5,100 -540 Descending New York TRACON
11:31 40.5500 -74.5833 166° South 218 251 5,000 -60 Descending New York TRACON
11:32 40.5000 -74.5500 153° Southeast 212 244 5,000  Level New York TRACON
11:33 40.4500 -74.5000 143° Southeast 219 252 5,000 -240 Level New York TRACON
11:34 40.4167 -74.4500 131° Southeast 217 250 4,600 -720 Descending New York TRACON
11:35 40.4333 -74.3833 72° East 206 237 3,600 -840 Descending New York TRACON
11:36 40.4667 -74.3333 49° Northeast 174 200 3,000 -300 Descending New York TRACON
11:37 40.5000 -74.2833 49° Northeast 176 203 3,000 -60 Level New York TRACON
11:38 40.5500 -74.2500 27° Northeast 181 208 2,900 -600 Descending New York TRACON
11:39 40.6000 -74.2333 14° North 185 213 1,900 -960 Descending New York TRACON
11:40 40.6333 -74.2000 37° Northeast 183 211 1,000 -900 Descending New York TRACON
11:42 40.6833 -74.1667 37° Northeast  Level FlightAware Approximate
11:49 40.6925 -74.1687 37° Northeast  Level Estimated